TAF and METAR

METAR for Ekofisk Oil Pltf

ENLE 020150Z 17007KT CAVOK 07/04 Q1022 W09/S4
Report created 2. des 02:50
wind 7 knots from S (170°) Clear sky Temperature 7° with dewpoint at 4° (Humidity 81.20%) Pressure 1022 hPa

TAF for Ekofisk Oil Pltf

TAF ENLE 020200Z 0203/0212 17008KT 9999 SCT030 BECMG 0203/0205 18018KT
Report created 2. des 03:00

between 2. des 04:00 - 2. des 13:00

wind 8 knots from S (170°) visibility > 10km scattered clouds (~50% cover) at 3000 feet

becoming between 2. des 04:00 - 2. des 06:00

wind 18 knots from S (180°)
Ekofisk Oil Pltf in Norway at 3m

Latest 5 airports